Time;durP1;ratioP1;P1;durP2;ratioP2;P2;SDS_P1;SDS_P2;PMS_P1;PMS_P2;Temp;Humidity;BMP_temperature;BMP_pressure;BME280_temperature;BME280_humidity;BME280_pressure;Samples;Min_cycle;Max_cycle;Signal;HPM_P1;HPM_P2
2023/05/30 00:02:11;;;;;;;5.50;2.83;;;;;;;;;;4959319;28;20034;-82
2023/05/30 00:04:39;;;;;;;6.18;2.60;;;;;;;;;;4974638;28;20030;-81
2023/05/30 00:07:05;;;;;;;5.78;2.35;;;;;;;;;;4966785;28;20106;-83
2023/05/30 00:09:30;;;;;;;5.65;2.58;;;;;;;;;;4964571;28;20745;-83
2023/05/30 00:11:56;;;;;;;4.72;2.30;;;;;;;;;;4964563;28;20049;-81
2023/05/30 00:14:23;;;;;;;5.82;2.35;;;;;;;;;;4950596;29;20063;-80
2023/05/30 00:16:48;;;;;;;8.23;2.60;;;;;;;;;;4955458;28;20087;-82
2023/05/30 00:19:14;;;;;;;4.03;2.22;;;;;;;;;;4955357;28;20074;-83
2023/05/30 00:21:39;;;;;;;7.82;2.80;;;;;;;;;;4949949;29;20031;-81
2023/05/30 00:24:05;;;;;;;3.88;2.47;;;;;;;;;;4944537;28;20041;-81
2023/05/30 00:26:31;;;;;;;5.72;2.72;;;;;;;;;;4959749;28;20027;-81
2023/05/30 00:28:56;;;;;;;4.40;2.80;;;;;;;;;;4957260;28;20054;-81
2023/05/30 00:31:23;;;;;;;4.65;2.58;;;;;;;;;;4967250;28;20033;-80
2023/05/30 00:33:48;;;;;;;5.28;2.60;;;;;;;;;;4955299;29;20031;-79
2023/05/30 00:36:14;;;;;;;8.52;2.58;;;;;;;;;;4958864;28;20031;-82
2023/05/30 00:38:40;;;;;;;4.65;2.75;;;;;;;;;;4963963;28;20034;-78
2023/05/30 00:41:05;;;;;;;4.22;2.45;;;;;;;;;;4976890;28;20050;-79
2023/05/30 00:43:30;;;;;;;5.60;2.35;;;;;;;;;;4976081;28;20024;-79
2023/05/30 00:45:56;;;;;;;4.65;2.55;;;;;;;;;;4975478;28;20038;-81
2023/05/30 00:48:23;;;;;;;3.63;2.60;;;;;;;;;;4951751;29;20027;-82
2023/05/30 00:50:49;;;;;;;4.85;2.90;;;;;;;;;;4938352;29;20047;-81
2023/05/30 00:53:15;;;;;;;4.80;3.00;;;;;;;;;;4957822;29;20038;-82
2023/05/30 00:55:41;;;;;;;4.47;2.45;;;;;;;;;;4955721;28;20051;-80
2023/05/30 00:58:07;;;;;;;4.45;2.75;;;;;;;;;;4960312;28;20030;-82
2023/05/30 01:00:37;;;;;;;6.60;2.55;;;;;;;;;;4955566;28;20063;-83
2023/05/30 01:03:03;;;;;;;3.42;2.45;;;;;;;;;;4958010;28;20110;-82
2023/05/30 01:05:28;;;;;;;5.32;2.75;;;;;;;;;;4965072;28;20050;-81
2023/05/30 01:07:54;;;;;;;5.28;2.40;;;;;;;;;;4953834;29;20038;-81
2023/05/30 01:10:20;;;;;;;5.32;3.00;;;;;;;;;;4950656;29;20026;-81
2023/05/30 01:13:03;;;;;;;3.85;2.40;;;;;;;;;;4963886;28;20103;-82
2023/05/30 01:15:54;;;;;;;6.68;2.97;;;;;;;;;;4963328;28;20083;-81
2023/05/30 01:18:25;;;;;;;3.10;2.28;;;;;;;;;;4966388;28;20433;-81
2023/05/30 01:20:56;;;;;;;5.43;2.72;;;;;;;;;;4956982;28;20027;-81
2023/05/30 01:23:49;;;;;;;6.28;2.75;;;;;;;;;;4960816;28;20023;-81
2023/05/30 01:26:14;;;;;;;;;;;;;;;;;;4966634;28;20024;-82
2023/05/30 01:28:41;;;;;;;5.28;2.47;;;;;;;;;;4966951;28;20328;-80
2023/05/30 01:31:08;;;;;;;5.55;2.65;;;;;;;;;;4962127;28;20027;-81
2023/05/30 01:33:34;;;;;;;4.80;2.80;;;;;;;;;;4951518;28;20046;-82
2023/05/30 01:35:59;;;;;;;5.32;2.88;;;;;;;;;;4973732;28;20453;-78
2023/05/30 01:38:25;;;;;;;5.00;2.67;;;;;;;;;;4977147;28;20082;-79
2023/05/30 01:40:56;;;;;;;7.72;3.17;;;;;;;;;;4944301;29;20035;-80
2023/05/30 01:43:32;;;;;;;5.05;2.78;;;;;;;;;;4965482;28;20042;-82
2023/05/30 01:46:22;;;;;;;9.02;2.63;;;;;;;;;;4954110;28;20031;-81
2023/05/30 01:49:01;;;;;;;5.80;2.70;;;;;;;;;;4956086;28;20019;-81
2023/05/30 01:51:34;;;;;;;6.38;2.40;;;;;;;;;;4955091;29;20592;-81
2023/05/30 01:54:03;;;;;;;4.53;2.70;;;;;;;;;;4951644;28;20031;-82
2023/05/30 01:56:31;;;;;;;6.05;2.63;;;;;;;;;;4958057;28;20391;-82
2023/05/30 01:58:57;;;;;;;4.72;2.90;;;;;;;;;;4957306;28;20035;-81
2023/05/30 02:01:27;;;;;;;5.63;2.78;;;;;;;;;;4963202;28;20047;-82
2023/05/30 02:03:53;;;;;;;4.38;2.42;;;;;;;;;;4969352;28;20042;-78
2023/05/30 02:06:19;;;;;;;5.22;2.65;;;;;;;;;;4966175;28;20046;-81
2023/05/30 02:08:44;;;;;;;7.07;2.70;;;;;;;;;;4945685;29;20051;-80
2023/05/30 02:11:10;;;;;;;5.78;2.92;;;;;;;;;;4964596;28;20047;-80
2023/05/30 02:13:35;;;;;;;3.97;2.58;;;;;;;;;;4968890;28;20026;-81
2023/05/30 02:16:01;;;;;;;4.90;2.78;;;;;;;;;;4959461;28;20019;-81
2023/05/30 02:18:27;;;;;;;7.57;3.03;;;;;;;;;;4958894;28;20529;-77
2023/05/30 02:20:54;;;;;;;4.32;2.80;;;;;;;;;;4949483;28;20031;-80
2023/05/30 02:23:19;;;;;;;5.72;3.00;;;;;;;;;;4925780;28;20496;-82
2023/05/30 02:25:45;;;;;;;5.90;2.60;;;;;;;;;;4960161;28;20031;-79
2023/05/30 02:28:10;;;;;;;5.00;2.38;;;;;;;;;;4960321;28;20031;-82
2023/05/30 02:30:36;;;;;;;4.45;2.55;;;;;;;;;;4955450;28;20034;-82
2023/05/30 02:33:02;;;;;;;5.30;2.80;;;;;;;;;;4952643;29;20031;-80
2023/05/30 02:35:27;;;;;;;4.63;2.97;;;;;;;;;;4950633;28;20096;-82
2023/05/30 02:37:52;;;;;;;5.00;3.08;;;;;;;;;;4957653;28;20627;-80
2023/05/30 02:40:18;;;;;;;4.60;2.78;;;;;;;;;;4941783;28;20029;-82
2023/05/30 02:42:43;;;;;;;8.15;2.97;;;;;;;;;;4954161;28;20039;-82
2023/05/30 02:45:09;;;;;;;6.53;3.10;;;;;;;;;;4956930;28;20027;-81
2023/05/30 02:47:34;;;;;;;9.73;3.00;;;;;;;;;;4956972;28;20035;-82
2023/05/30 02:50:00;;;;;;;4.97;3.10;;;;;;;;;;4958266;28;20039;-83
2023/05/30 02:52:25;;;;;;;5.78;3.20;;;;;;;;;;4956184;28;20023;-82
2023/05/30 02:54:51;;;;;;;6.38;3.10;;;;;;;;;;4972439;28;20023;-80
2023/05/30 02:57:16;;;;;;;5.78;3.28;;;;;;;;;;4973194;28;20034;-81
2023/05/30 02:59:42;;;;;;;4.03;3.05;;;;;;;;;;4970824;28;20536;-81
2023/05/30 03:02:09;;;;;;;6.80;3.05;;;;;;;;;;4960675;28;20039;-81
2023/05/30 03:04:36;;;;;;;6.93;3.00;;;;;;;;;;4964043;28;20110;-80
2023/05/30 03:07:02;;;;;;;6.47;3.08;;;;;;;;;;4957175;28;20037;-81
2023/05/30 03:09:27;;;;;;;4.55;2.60;;;;;;;;;;4938354;29;20023;-81
2023/05/30 03:11:53;;;;;;;4.18;2.85;;;;;;;;;;4960562;28;20035;-80
2023/05/30 03:14:18;;;;;;;4.70;2.78;;;;;;;;;;4967921;28;20027;-80
2023/05/30 03:16:44;;;;;;;6.80;2.83;;;;;;;;;;4947845;29;20031;-80
2023/05/30 03:19:09;;;;;;;7.32;3.13;;;;;;;;;;4947655;28;20037;-82
2023/05/30 03:21:36;;;;;;;5.93;3.08;;;;;;;;;;4943276;29;20031;-81
2023/05/30 03:24:02;;;;;;;7.13;3.50;;;;;;;;;;4961248;28;20023;-82
2023/05/30 03:26:27;;;;;;;4.90;3.15;;;;;;;;;;4972646;28;20062;-82
2023/05/30 03:28:53;;;;;;;9.00;3.10;;;;;;;;;;4971921;28;20027;-81
2023/05/30 03:31:18;;;;;;;13.93;2.78;;;;;;;;;;4941051;29;20042;-81
2023/05/30 03:33:44;;;;;;;6.78;3.20;;;;;;;;;;4956934;28;20142;-82
2023/05/30 03:36:10;;;;;;;6.45;2.80;;;;;;;;;;4953778;28;20070;-81
2023/05/30 03:38:36;;;;;;;7.07;3.45;;;;;;;;;;4938161;29;20976;-81
2023/05/30 03:41:03;;;;;;;4.20;3.20;;;;;;;;;;4966215;28;20075;-82
2023/05/30 03:43:29;;;;;;;5.97;3.42;;;;;;;;;;4961952;28;20039;-82
2023/05/30 03:45:55;;;;;;;5.13;2.95;;;;;;;;;;4955430;28;20031;-78
2023/05/30 03:48:20;;;;;;;9.25;3.83;;;;;;;;;;4955228;28;20019;-82
2023/05/30 03:50:45;;;;;;;5.10;3.25;;;;;;;;;;4964435;28;20097;-79
2023/05/30 03:53:11;;;;;;;8.23;3.47;;;;;;;;;;4959807;28;20459;-82
2023/05/30 03:55:36;;;;;;;9.20;3.00;;;;;;;;;;4954580;28;20031;-81
2023/05/30 03:58:01;;;;;;;4.97;2.85;;;;;;;;;;4954720;28;20028;-82
2023/05/30 04:00:27;;;;;;;5.55;3.33;;;;;;;;;;4961405;28;20038;-82
2023/05/30 04:02:53;;;;;;;7.35;3.42;;;;;;;;;;4966477;28;20046;-81
2023/05/30 04:05:19;;;;;;;4.70;2.80;;;;;;;;;;4960785;28;20035;-81
2023/05/30 04:07:44;;;;;;;5.15;3.35;;;;;;;;;;4960167;28;20031;-81
2023/05/30 04:10:10;;;;;;;9.98;3.10;;;;;;;;;;4952389;29;20051;-81
2023/05/30 04:12:35;;;;;;;7.05;3.40;;;;;;;;;;4966864;28;20065;-79
2023/05/30 04:15:00;;;;;;;7.32;4.03;;;;;;;;;;4963361;28;20135;-81
2023/05/30 04:17:26;;;;;;;6.35;3.30;;;;;;;;;;4958347;28;20032;-82
2023/05/30 04:19:52;;;;;;;5.63;3.05;;;;;;;;;;4955727;28;20027;-80
2023/05/30 04:22:24;;;;;;;6.95;3.60;;;;;;;;;;4960800;29;20386;-80
2023/05/30 04:24:50;;;;;;;4.97;3.08;;;;;;;;;;4958696;28;20039;-81
2023/05/30 04:27:17;;;;;;;6.63;3.47;;;;;;;;;;4959339;28;20035;-80
2023/05/30 04:29:42;;;;;;;6.25;3.33;;;;;;;;;;4962573;28;20082;-81
2023/05/30 04:32:09;;;;;;;6.15;3.15;;;;;;;;;;4958726;28;20031;-80
2023/05/30 04:34:34;;;;;;;3.53;2.90;;;;;;;;;;4960856;28;20754;-77
2023/05/30 04:37:01;;;;;;;5.40;2.90;;;;;;;;;;4960568;28;20031;-82
2023/05/30 04:39:27;;;;;;;10.30;3.03;;;;;;;;;;4953979;28;20027;-80
2023/05/30 04:41:54;;;;;;;6.70;3.13;;;;;;;;;;4959585;29;20126;-81
2023/05/30 04:44:20;;;;;;;6.40;2.88;;;;;;;;;;4955611;28;20035;-81
2023/05/30 04:46:46;;;;;;;6.75;2.80;;;;;;;;;;4959978;28;20047;-80
2023/05/30 04:49:14;;;;;;;5.68;3.22;;;;;;;;;;4969701;28;20019;-80
2023/05/30 04:51:40;;;;;;;6.47;3.13;;;;;;;;;;4953795;28;20030;-80
2023/05/30 04:54:05;;;;;;;7.60;3.30;;;;;;;;;;4942564;28;20042;-80
2023/05/30 04:56:31;;;;;;;9.75;3.25;;;;;;;;;;4969944;28;20034;-81
2023/05/30 04:58:56;;;;;;;4.95;2.97;;;;;;;;;;4943949;29;20058;-80
2023/05/30 05:01:23;;;;;;;4.85;2.97;;;;;;;;;;4969881;28;20023;-80
2023/05/30 05:03:49;;;;;;;6.25;3.42;;;;;;;;;;4960929;28;20054;-81
2023/05/30 05:06:14;;;;;;;7.75;2.97;;;;;;;;;;4966985;28;20023;-80
2023/05/30 05:08:39;;;;;;;5.70;3.13;;;;;;;;;;4964191;28;20066;-80
2023/05/30 05:11:06;;;;;;;6.13;3.42;;;;;;;;;;4961469;28;20054;-80
2023/05/30 05:13:32;;;;;;;7.13;2.72;;;;;;;;;;4964990;28;20022;-81
2023/05/30 05:15:57;;;;;;;5.70;2.60;;;;;;;;;;4958000;28;20043;-81
2023/05/30 05:18:23;;;;;;;4.82;2.83;;;;;;;;;;4961293;28;20122;-81
2023/05/30 05:20:48;;;;;;;4.50;2.92;;;;;;;;;;4949558;29;20067;-81
2023/05/30 05:23:14;;;;;;;9.85;3.20;;;;;;;;;;4969164;28;20154;-80
2023/05/30 05:25:40;;;;;;;4.55;2.88;;;;;;;;;;4960092;28;20023;-81
2023/05/30 05:28:05;;;;;;;5.18;2.50;;;;;;;;;;4960940;28;20026;-81
2023/05/30 05:30:30;;;;;;;6.43;2.95;;;;;;;;;;4959590;28;20058;-80
2023/05/30 05:32:56;;;;;;;6.00;2.67;;;;;;;;;;4945538;29;20038;-80
2023/05/30 05:35:22;;;;;;;7.00;2.70;;;;;;;;;;4963463;28;20055;-81
2023/05/30 05:37:48;;;;;;;6.50;2.78;;;;;;;;;;4959407;28;20024;-80
2023/05/30 05:40:13;;;;;;;7.78;2.70;;;;;;;;;;4956808;28;20042;-81
2023/05/30 05:42:38;;;;;;;6.30;3.28;;;;;;;;;;4964514;28;20034;-79
2023/05/30 05:45:04;;;;;;;6.35;3.00;;;;;;;;;;4963279;28;20041;-79
2023/05/30 05:47:30;;;;;;;5.25;2.83;;;;;;;;;;4969298;28;20023;-81
2023/05/30 05:49:55;;;;;;;5.60;2.70;;;;;;;;;;4965918;28;20433;-81
2023/05/30 05:52:21;;;;;;;5.38;3.13;;;;;;;;;;4981276;28;20505;-81
2023/05/30 05:54:46;;;;;;;3.47;2.63;;;;;;;;;;4967812;28;20048;-80
2023/05/30 05:57:12;;;;;;;5.28;2.80;;;;;;;;;;4961231;28;20038;-81
2023/05/30 05:59:37;;;;;;;7.97;2.80;;;;;;;;;;4960122;28;20039;-80
2023/05/30 06:02:02;;;;;;;4.85;2.60;;;;;;;;;;4961994;28;20316;-80
2023/05/30 06:04:28;;;;;;;5.75;2.90;;;;;;;;;;4971780;28;20023;-81
2023/05/30 06:06:53;;;;;;;7.70;3.45;;;;;;;;;;4954701;28;20054;-80
2023/05/30 06:09:19;;;;;;;5.50;2.90;;;;;;;;;;4960807;28;20039;-79
2023/05/30 06:11:44;;;;;;;7.18;3.15;;;;;;;;;;4966494;28;20085;-79
2023/05/30 06:14:10;;;;;;;11.40;3.20;;;;;;;;;;4970541;28;20038;-82
2023/05/30 06:16:35;;;;;;;7.32;2.40;;;;;;;;;;4956360;28;20477;-81
2023/05/30 06:19:00;;;;;;;5.07;2.53;;;;;;;;;;4960150;28;20019;-80
2023/05/30 06:21:26;;;;;;;6.15;2.40;;;;;;;;;;4942624;29;20023;-79
2023/05/30 06:23:51;;;;;;;3.92;2.45;;;;;;;;;;4949420;29;20549;-81
2023/05/30 06:26:16;;;;;;;4.28;2.15;;;;;;;;;;4963519;28;20040;-82
2023/05/30 06:28:42;;;;;;;11.55;2.75;;;;;;;;;;4968280;28;20042;-82
2023/05/30 06:31:07;;;;;;;4.45;2.60;;;;;;;;;;4943064;29;20039;-81
2023/05/30 06:33:33;;;;;;;4.43;2.40;;;;;;;;;;4957328;28;20105;-81
2023/05/30 06:35:58;;;;;;;8.02;2.67;;;;;;;;;;4964932;28;20046;-82
2023/05/30 06:38:25;;;;;;;4.90;2.33;;;;;;;;;;4961737;28;20033;-81
2023/05/30 06:40:50;;;;;;;4.18;2.38;;;;;;;;;;4972255;28;20426;-81
2023/05/30 06:43:15;;;;;;;8.60;2.95;;;;;;;;;;4958295;28;20058;-81
2023/05/30 06:45:41;;;;;;;5.15;2.53;;;;;;;;;;4957840;28;20028;-80
2023/05/30 06:48:06;;;;;;;5.03;2.65;;;;;;;;;;4960054;28;20031;-81
2023/05/30 06:50:31;;;;;;;3.92;2.47;;;;;;;;;;4948866;28;20035;-81
2023/05/30 06:52:57;;;;;;;4.90;2.30;;;;;;;;;;4950472;29;20023;-83
2023/05/30 06:55:22;;;;;;;8.52;3.20;;;;;;;;;;4960362;28;20477;-81
2023/05/30 06:57:53;;;;;;;7.93;2.60;;;;;;;;;;4972787;28;20027;-80
2023/05/30 07:00:19;;;;;;;3.13;2.30;;;;;;;;;;4945429;29;20038;-81
2023/05/30 07:02:45;;;;;;;4.47;2.60;;;;;;;;;;4958779;28;20094;-81
2023/05/30 07:05:10;;;;;;;9.15;2.40;;;;;;;;;;4969198;28;20032;-81
2023/05/30 07:07:36;;;;;;;8.02;2.40;;;;;;;;;;4960544;28;20378;-81
2023/05/30 07:10:02;;;;;;;4.28;2.38;;;;;;;;;;4963678;28;20015;-81
2023/05/30 07:12:27;;;;;;;10.68;2.92;;;;;;;;;;4970580;28;20027;-81
2023/05/30 07:14:52;;;;;;;5.00;2.55;;;;;;;;;;4957977;28;20036;-81
2023/05/30 07:17:18;;;;;;;6.85;2.92;;;;;;;;;;4962876;28;20830;-81
2023/05/30 07:19:43;;;;;;;6.45;2.53;;;;;;;;;;4967250;28;20477;-81
2023/05/30 07:22:08;;;;;;;8.23;2.83;;;;;;;;;;4945215;29;20430;-81
2023/05/30 07:24:34;;;;;;;4.78;2.70;;;;;;;;;;4959838;28;20478;-81
2023/05/30 07:26:59;;;;;;;3.42;2.63;;;;;;;;;;4958597;28;20030;-80
2023/05/30 07:29:25;;;;;;;4.32;2.30;;;;;;;;;;4958536;28;20015;-80
2023/05/30 07:31:50;;;;;;;5.30;2.15;;;;;;;;;;4959471;29;20054;-81
2023/05/30 07:34:16;;;;;;;5.85;2.40;;;;;;;;;;4959296;29;20042;-81
2023/05/30 07:36:41;;;;;;;5.40;2.65;;;;;;;;;;4962538;28;20062;-81
2023/05/30 07:39:06;;;;;;;12.52;2.75;;;;;;;;;;4965006;28;20031;-81
2023/05/30 07:41:32;;;;;;;6.30;2.42;;;;;;;;;;4967202;28;20091;-81
2023/05/30 07:43:57;;;;;;;6.55;2.45;;;;;;;;;;4964776;28;20454;-81
2023/05/30 07:46:22;;;;;;;4.55;2.50;;;;;;;;;;4950763;28;20439;-80
2023/05/30 07:48:48;;;;;;;5.28;2.80;;;;;;;;;;4964510;28;20050;-80
2023/05/30 07:51:13;;;;;;;5.75;2.50;;;;;;;;;;4960453;28;20027;-80
2023/05/30 07:53:39;;;;;;;5.60;2.47;;;;;;;;;;4971784;28;20034;-80
2023/05/30 07:56:05;;;;;;;5.95;2.50;;;;;;;;;;4984644;28;20039;-78
2023/05/30 07:58:30;;;;;;;3.88;2.17;;;;;;;;;;4961870;29;20047;-78
2023/05/30 08:00:55;;;;;;;4.60;2.40;;;;;;;;;;4954853;29;20418;-79
2023/05/30 08:03:21;;;;;;;9.65;2.78;;;;;;;;;;4953312;29;20023;-79
2023/05/30 08:05:50;;;;;;;9.63;2.78;;;;;;;;;;4957975;28;20031;-79
2023/05/30 08:08:16;;;;;;;7.10;2.53;;;;;;;;;;4967682;28;20020;-79
2023/05/30 08:10:41;;;;;;;3.78;2.22;;;;;;;;;;4937807;29;20035;-80
2023/05/30 08:13:06;;;;;;;6.90;2.58;;;;;;;;;;4968736;28;20038;-79
2023/05/30 08:15:32;;;;;;;8.50;2.65;;;;;;;;;;4961219;28;20055;-79
2023/05/30 08:18:00;;;;;;;6.47;2.70;;;;;;;;;;4960387;28;20063;-80
2023/05/30 08:20:25;;;;;;;5.82;2.50;;;;;;;;;;4946597;28;20031;-80
2023/05/30 08:22:51;;;;;;;4.72;2.53;;;;;;;;;;4966162;28;20069;-80
2023/05/30 08:25:18;;;;;;;5.80;2.50;;;;;;;;;;4959414;28;20050;-80
2023/05/30 08:27:43;;;;;;;5.55;2.55;;;;;;;;;;4959227;29;20046;-80
2023/05/30 08:30:10;;;;;;;8.90;2.45;;;;;;;;;;4954194;28;20028;-79
2023/05/30 08:32:37;;;;;;;4.90;2.28;;;;;;;;;;4944513;29;20027;-80
2023/05/30 08:35:03;;;;;;;9.55;2.83;;;;;;;;;;4957677;28;20196;-79
2023/05/30 08:37:29;;;;;;;5.90;2.78;;;;;;;;;;4959853;28;20046;-80
2023/05/30 08:39:54;;;;;;;5.60;2.50;;;;;;;;;;4962075;28;20114;-79
2023/05/30 08:42:19;;;;;;;9.52;3.13;;;;;;;;;;4941041;28;20138;-80
2023/05/30 08:44:45;;;;;;;12.68;2.70;;;;;;;;;;4968401;28;20506;-81
2023/05/30 08:47:15;;;;;;;7.28;2.70;;;;;;;;;;4962650;28;20056;-80
2023/05/30 08:49:42;;;;;;;6.95;2.65;;;;;;;;;;4955247;28;20150;-79
2023/05/30 08:52:12;;;;;;;5.97;2.95;;;;;;;;;;4958510;28;20047;-80
2023/05/30 08:54:42;;;;;;;7.60;2.60;;;;;;;;;;4958112;28;20051;-80
2023/05/30 08:57:14;;;;;;;6.45;2.70;;;;;;;;;;4960690;28;20027;-80
2023/05/30 08:59:40;;;;;;;6.82;2.10;;;;;;;;;;4962959;28;20033;-80
2023/05/30 09:02:07;;;;;;;3.80;2.15;;;;;;;;;;4942738;29;20074;-81
2023/05/30 09:04:33;;;;;;;9.15;2.42;;;;;;;;;;4963626;28;20119;-79
2023/05/30 09:07:02;;;;;;;6.45;2.53;;;;;;;;;;4957356;28;20027;-80
2023/05/30 09:09:32;;;;;;;7.72;2.17;;;;;;;;;;4955796;28;20015;-80
2023/05/30 09:11:58;;;;;;;3.90;2.20;;;;;;;;;;4962328;28;20034;-79
2023/05/30 09:14:23;;;;;;;5.95;2.65;;;;;;;;;;4962252;28;20039;-80
2023/05/30 09:16:48;;;;;;;7.68;3.33;;;;;;;;;;4962314;29;20477;-79
2023/05/30 09:19:14;;;;;;;4.57;2.28;;;;;;;;;;4953759;28;20035;-79
2023/05/30 09:21:40;;;;;;;5.70;2.33;;;;;;;;;;4953108;28;20050;-80
2023/05/30 09:24:05;;;;;;;4.93;2.45;;;;;;;;;;4977060;28;20031;-81
2023/05/30 09:26:32;;;;;;;10.73;3.15;;;;;;;;;;4962487;28;20538;-80
2023/05/30 09:29:09;;;;;;;5.40;2.60;;;;;;;;;;4971630;28;20104;-80
2023/05/30 09:31:35;;;;;;;7.53;2.40;;;;;;;;;;4959051;28;20034;-80
2023/05/30 09:34:01;;;;;;;4.05;2.45;;;;;;;;;;4970558;28;20034;-80
2023/05/30 09:36:28;;;;;;;4.65;2.17;;;;;;;;;;4963696;28;20035;-80
2023/05/30 09:38:57;;;;;;;8.10;2.25;;;;;;;;;;4968038;28;20043;-80
2023/05/30 09:41:26;;;;;;;3.15;2.20;;;;;;;;;;4972001;28;20472;-80
2023/05/30 09:43:53;;;;;;;5.68;3.03;;;;;;;;;;4970875;28;20034;-79
2023/05/30 09:46:29;;;;;;;8.07;2.30;;;;;;;;;;4955595;28;20035;-80
2023/05/30 09:48:55;;;;;;;8.15;2.88;;;;;;;;;;4959309;28;20134;-79
2023/05/30 09:51:22;;;;;;;5.70;2.30;;;;;;;;;;4967654;28;20063;-80
2023/05/30 09:54:00;;;;;;;3.88;2.17;;;;;;;;;;4958723;28;20390;-80
2023/05/30 09:56:44;;;;;;;5.18;2.50;;;;;;;;;;4963146;28;20041;-80
2023/05/30 09:59:11;;;;;;;6.47;2.75;;;;;;;;;;4950346;28;20036;-81
2023/05/30 10:01:41;;;;;;;6.40;2.63;;;;;;;;;;4947989;29;20035;-81
2023/05/30 10:04:10;;;;;;;9.77;2.58;;;;;;;;;;4950618;28;20063;-81
2023/05/30 10:06:39;;;;;;;4.07;2.22;;;;;;;;;;4949170;28;20119;-79
2023/05/30 10:09:06;;;;;;;4.47;2.33;;;;;;;;;;4966776;28;20027;-80
2023/05/30 10:11:32;;;;;;;8.55;2.80;;;;;;;;;;4962262;28;20061;-81
2023/05/30 10:14:01;;;;;;;6.25;2.42;;;;;;;;;;4962103;28;20031;-81
2023/05/30 10:16:28;;;;;;;8.57;2.40;;;;;;;;;;4964461;28;20397;-81
2023/05/30 10:18:56;;;;;;;5.85;2.83;;;;;;;;;;4954576;28;20033;-80
2023/05/30 10:21:22;;;;;;;8.02;2.58;;;;;;;;;;4962175;28;20089;-82
2023/05/30 10:23:49;;;;;;;4.90;2.38;;;;;;;;;;4977936;28;20026;-82
2023/05/30 10:26:16;;;;;;;5.28;2.08;;;;;;;;;;4962252;28;20043;-80
2023/05/30 10:28:45;;;;;;;5.65;2.60;;;;;;;;;;4965287;28;20023;-81
2023/05/30 10:31:12;;;;;;;5.07;2.20;;;;;;;;;;4956920;28;20034;-81
2023/05/30 10:33:43;;;;;;;4.70;2.63;;;;;;;;;;4958639;28;20408;-79
2023/05/30 10:36:09;;;;;;;2.90;1.80;;;;;;;;;;4955715;28;20046;-79
2023/05/30 10:38:44;;;;;;;6.05;2.50;;;;;;;;;;4933005;29;20039;-81
2023/05/30 10:41:32;;;;;;;6.72;2.40;;;;;;;;;;4971378;28;20083;-77
2023/05/30 10:44:29;;;;;;;3.72;2.60;;;;;;;;;;4971685;28;20015;-78
2023/05/30 10:47:30;;;;;;;6.65;2.40;;;;;;;;;;4979451;28;20031;-78
2023/05/30 10:49:59;;;;;;;6.45;2.60;;;;;;;;;;4934890;29;20110;-79
2023/05/30 10:52:31;;;;;;;5.88;2.67;;;;;;;;;;4959966;28;20137;-81
2023/05/30 10:54:57;;;;;;;7.03;3.00;;;;;;;;;;4955973;28;20023;-80
2023/05/30 10:57:24;;;;;;;4.72;2.30;;;;;;;;;;4961462;28;20035;-81
2023/05/30 10:59:50;;;;;;;6.75;2.55;;;;;;;;;;4953357;28;20533;-81
2023/05/30 11:02:20;;;;;;;4.45;2.35;;;;;;;;;;4956747;28;20367;-81
2023/05/30 11:04:49;;;;;;;5.07;2.35;;;;;;;;;;4959567;28;20519;-80
2023/05/30 11:07:17;;;;;;;7.40;2.22;;;;;;;;;;4959077;28;20485;-81
2023/05/30 11:10:00;;;;;;;6.20;2.42;;;;;;;;;;4963239;28;20027;-81
2023/05/30 11:12:26;;;;;;;4.25;2.95;;;;;;;;;;4960746;28;20034;-80
2023/05/30 11:14:59;;;;;;;3.60;2.35;;;;;;;;;;4968717;28;20030;-82
2023/05/30 11:17:35;;;;;;;5.38;2.35;;;;;;;;;;4956582;28;20023;-79
2023/05/30 11:20:06;;;;;;;3.50;2.08;;;;;;;;;;4955035;28;20035;-81
2023/05/30 11:22:32;;;;;;;;;;;;;;;;;;4954691;28;20057;-83
2023/05/30 11:25:17;;;;;;;4.53;2.28;;;;;;;;;;4943150;28;20573;-80
2023/05/30 11:28:05;;;;;;;3.95;1.98;;;;;;;;;;4950483;28;20113;-82
2023/05/30 11:30:32;;;;;;;8.75;2.42;;;;;;;;;;4963283;28;20426;-82
2023/05/30 11:32:59;;;;;;;5.47;2.47;;;;;;;;;;4964387;28;20023;-82
2023/05/30 11:35:26;;;;;;;6.65;2.58;;;;;;;;;;4952102;28;20023;-83
2023/05/30 11:37:53;;;;;;;3.47;2.20;;;;;;;;;;4957334;28;20031;-80
2023/05/30 11:40:21;;;;;;;6.85;2.33;;;;;;;;;;4961373;28;20153;-82
2023/05/30 11:42:51;;;;;;;9.27;2.65;;;;;;;;;;4968294;28;20102;-81
2023/05/30 11:45:17;;;;;;;6.07;2.17;;;;;;;;;;4954807;28;20035;-82
2023/05/30 11:47:43;;;;;;;3.97;2.22;;;;;;;;;;4936028;29;20102;-81
2023/05/30 11:50:09;;;;;;;5.72;2.30;;;;;;;;;;4957009;29;20086;-83
2023/05/30 11:52:39;;;;;;;3.63;1.92;;;;;;;;;;4951497;29;20027;-82
2023/05/30 11:55:04;;;;;;;4.78;2.20;;;;;;;;;;4955797;28;20054;-82
2023/05/30 11:57:31;;;;;;;4.35;2.10;;;;;;;;;;4963752;28;20103;-82
2023/05/30 11:59:57;;;;;;;6.43;2.40;;;;;;;;;;4961361;28;20363;-82
2023/05/30 12:02:26;;;;;;;5.93;2.40;;;;;;;;;;4961389;28;20027;-81
2023/05/30 12:05:00;;;;;;;3.55;2.10;;;;;;;;;;4935808;28;20027;-83
2023/05/30 12:07:26;;;;;;;3.88;2.30;;;;;;;;;;4957981;28;20039;-82
2023/05/30 12:09:51;;;;;;;5.65;2.30;;;;;;;;;;4966335;28;20540;-82
2023/05/30 12:12:17;;;;;;;4.68;2.40;;;;;;;;;;4966836;28;20035;-83
2023/05/30 12:14:42;;;;;;;5.97;2.40;;;;;;;;;;4940978;29;20645;-81
2023/05/30 12:17:12;;;;;;;5.75;2.35;;;;;;;;;;4959443;28;20665;-82
2023/05/30 12:19:38;;;;;;;6.45;2.17;;;;;;;;;;4952354;28;20023;-82
2023/05/30 12:22:06;;;;;;;5.45;2.50;;;;;;;;;;4959068;28;20089;-83
2023/05/30 12:24:36;;;;;;;6.32;2.28;;;;;;;;;;4955941;28;20051;-80
2023/05/30 12:27:03;;;;;;;4.35;2.15;;;;;;;;;;4969146;28;20030;-83
2023/05/30 12:29:34;;;;;;;7.10;2.10;;;;;;;;;;4955997;28;20025;-83
2023/05/30 12:35:25;;;;;;;5.68;2.42;;;;;;;;;;4959968;29;20419;-82
2023/05/30 12:37:58;;;;;;;3.85;2.05;;;;;;;;;;4955601;28;20030;-80
2023/05/30 12:40:26;;;;;;;4.22;2.25;;;;;;;;;;4953700;28;20031;-81
2023/05/30 12:42:56;;;;;;;3.63;2.17;;;;;;;;;;4954508;28;20733;-82
2023/05/30 12:45:22;;;;;;;7.00;2.00;;;;;;;;;;4958461;28;20027;-83
2023/05/30 12:47:47;;;;;;;4.55;2.30;;;;;;;;;;4966832;28;20150;-81
2023/05/30 12:50:12;;;;;;;4.80;2.42;;;;;;;;;;4951104;28;20019;-79
2023/05/30 12:52:38;;;;;;;4.38;2.17;;;;;;;;;;4957019;28;20114;-82
2023/05/30 12:55:03;;;;;;;6.72;2.35;;;;;;;;;;4965970;28;20362;-80
2023/05/30 12:57:29;;;;;;;6.55;3.00;;;;;;;;;;4980905;28;20041;-80
2023/05/30 12:59:55;;;;;;;4.30;2.50;;;;;;;;;;4975412;28;20051;-79
2023/05/30 13:02:24;;;;;;;4.82;2.05;;;;;;;;;;4965106;28;20039;-79
2023/05/30 13:04:50;;;;;;;4.72;2.40;;;;;;;;;;4940162;29;20069;-81
2023/05/30 13:07:16;;;;;;;5.05;2.40;;;;;;;;;;4957358;28;20051;-79
2023/05/30 13:09:41;;;;;;;7.20;2.45;;;;;;;;;;4957229;28;20023;-81
2023/05/30 13:12:10;;;;;;;5.50;2.35;;;;;;;;;;4961538;28;20462;-79
2023/05/30 13:14:37;;;;;;;6.18;2.42;;;;;;;;;;4952536;28;20030;-79
2023/05/30 13:17:06;;;;;;;6.80;3.20;;;;;;;;;;4965193;28;20038;-79
2023/05/30 13:19:32;;;;;;;5.45;2.78;;;;;;;;;;4967614;28;20019;-81
2023/05/30 13:21:58;;;;;;;6.72;2.22;;;;;;;;;;4966542;28;20046;-81
2023/05/30 13:24:24;;;;;;;5.65;2.35;;;;;;;;;;4962041;28;20117;-80
2023/05/30 13:26:50;;;;;;;7.30;2.45;;;;;;;;;;4955837;28;20034;-79
2023/05/30 13:29:16;;;;;;;9.00;2.70;;;;;;;;;;4960919;28;20027;-82
2023/05/30 13:31:41;;;;;;;5.75;2.33;;;;;;;;;;4956101;28;20081;-81
2023/05/30 13:34:06;;;;;;;4.13;2.40;;;;;;;;;;4952560;28;20095;-81
2023/05/30 13:36:32;;;;;;;3.58;2.10;;;;;;;;;;4960368;28;20035;-82
2023/05/30 13:38:57;;;;;;;5.18;2.40;;;;;;;;;;4958647;28;20106;-80
2023/05/30 13:41:26;;;;;;;6.65;2.60;;;;;;;;;;4954201;28;20051;-82
2023/05/30 13:43:52;;;;;;;5.40;2.60;;;;;;;;;;4943133;29;20035;-82
2023/05/30 13:46:17;;;;;;;5.82;2.25;;;;;;;;;;4968879;28;20027;-78
2023/05/30 13:48:43;;;;;;;6.85;1.92;;;;;;;;;;4956786;28;20023;-81
2023/05/30 13:51:09;;;;;;;3.92;2.00;;;;;;;;;;4962150;28;20032;-81
2023/05/30 13:53:34;;;;;;;4.05;2.10;;;;;;;;;;4959019;28;20086;-82
2023/05/30 13:56:00;;;;;;;8.23;2.30;;;;;;;;;;4957666;28;20026;-81
2023/05/30 13:58:25;;;;;;;6.45;2.22;;;;;;;;;;4956908;28;20130;-81
2023/05/30 14:00:50;;;;;;;4.93;2.30;;;;;;;;;;4941113;28;20039;-81
2023/05/30 14:03:16;;;;;;;5.22;2.20;;;;;;;;;;4955047;28;20051;-83
2023/05/30 14:05:41;;;;;;;4.85;2.00;;;;;;;;;;4962042;28;20069;-82
2023/05/30 14:08:06;;;;;;;5.28;2.05;;;;;;;;;;4963502;28;20082;-82
2023/05/30 14:10:32;;;;;;;5.05;2.08;;;;;;;;;;4958775;28;20390;-82
2023/05/30 14:12:58;;;;;;;5.25;1.98;;;;;;;;;;4940249;29;20113;-81
2023/05/30 14:15:24;;;;;;;11.88;2.65;;;;;;;;;;4958798;28;20073;-82
2023/05/30 14:17:50;;;;;;;4.10;1.95;;;;;;;;;;4963655;28;20449;-82
2023/05/30 14:20:16;;;;;;;4.95;2.05;;;;;;;;;;4959361;28;20036;-82
2023/05/30 14:22:42;;;;;;;3.35;2.30;;;;;;;;;;4963994;28;20035;-79
2023/05/30 14:25:08;;;;;;;7.53;2.33;;;;;;;;;;4955130;28;20394;-81
2023/05/30 14:27:33;;;;;;;5.63;2.30;;;;;;;;;;4957406;28;20033;-80
2023/05/30 14:30:00;;;;;;;3.88;2.00;;;;;;;;;;4950705;28;20031;-83
2023/05/30 14:32:25;;;;;;;5.03;2.30;;;;;;;;;;4952313;28;20058;-80
2023/05/30 14:34:51;;;;;;;4.22;2.13;;;;;;;;;;4942557;28;20031;-82
2023/05/30 14:37:16;;;;;;;5.75;2.40;;;;;;;;;;4953554;28;20117;-81
2023/05/30 14:39:41;;;;;;;4.25;2.30;;;;;;;;;;4956444;28;20031;-82
2023/05/30 14:42:07;;;;;;;4.13;1.85;;;;;;;;;;4963526;28;20033;-80
2023/05/30 14:44:33;;;;;;;4.75;1.88;;;;;;;;;;4968641;28;20027;-81
2023/05/30 14:46:58;;;;;;;6.75;2.15;;;;;;;;;;4956962;28;20038;-81